Arverne, NY

5:10 PM EDT on October 25, 2014 (GMT -0400)
Howard Beach | Change Station
CLOSE
Current Station
Personal Weather Station
Location: Queens, NY
Elevation: 7 ft
Nearby Weather Stations

Elev 7 ft 40.66 °N, 73.84 °W | Updated 27 seconds ago

Clear
Clear
68.0 °F
Feels Like 68.0 °F
N
2.0
Wind Variable Wind from East
Gusts 8.0 mph

Today
High -- | Low -- °F
--% Chance of Precip.
Yesterday
High -- | Low -- °F
Precip. -- in
7:17 AM 6:00 PM
Waxing Crescent, 4% visible
Pressure 29.68 in
Visibility 10.0 miles
Clouds Few 4500 ft
Scattered Clouds 26000 ft
Dew Point 49 °F
Humidity 50%
Rainfall 0.00 in
Snow Depth Not available.
UV 0 out of 12
Pollen 1.20 out of 12
Air Quality Not available.
Flu Activity Sporadic
METAR KJFK 252051Z 23016KT 10SM FEW045 SCT260 18/08 A2968 RMK AO2 SLP048 T01830078 56021

More Conditions Fewer Conditions

Pressure 29.68 in
Visibility 10.0 miles
Clouds Few 4500 ft
Scattered Clouds 26000 ft
Dew Point 49 °F
Humidity 50%
Rainfall 0.00 in
Snow Depth Not available.
UV 0 out of 12
Pollen 1.20 out of 12
Air Quality Not available.
Flu Activity Sporadic
METAR KJFK 252051Z 23016KT 10SM FEW045 SCT260 18/08 A2968 RMK AO2 SLP048 T01830078 56021

More Conditions Fewer Conditions

10-Day Weather Forecast

Almanac

Astronomy

Oct. 25, 2014 Rise Set
Actual Time 7:17 AM EDT 6:00 PM EDT
Civil Twilight 6:49 AM EDT 6:28 PM EDT
Nautical Twilight 6:17 AM EDT 7:00 PM EDT
Astronomical Twilight 5:45 AM EDT 7:32 PM EDT
Moon 8:53 AM EDT 7:21 PM EDT
Length of Visible Light 11h 39m
Length of Day
10h 43m
Tomorrow will be 2m 27s shorter.
Waxing Crescent, 4% of the Moon is Illuminated
Today
Waxing Crescent
Oct 30
First Quarter
Nov 6
Full
Nov 14
Last Quarter
Nov 22
New

Today's Extremes

State Highs State Lows

Community

WunderPhotos

Upload Photos

1,764,997 photos uploaded!

Nearby

Snow Depth

Station Depth Elevation
No new snow has been reported.

Earthquake Activity

City Distance Mag. Time & Date
No recent earthquake activity has been reported nearby.
Minimum magnitude displayed is 2.5.

Coastal Water Temperatures

Place Temperature
Sandy Hook, NJ 57.9 °F
The Battery, NY 62.1 °F
Bergen Point West Reach, NJ 61.0 °F
Kings Point, NY 59.0 °F

Nearby Weather Stations